Time;durP1;ratioP1;P1;durP2;ratioP2;P2;SDS_P1;SDS_P2;PMS_P1;PMS_P2;Temp;Humidity;BMP_temperature;BMP_pressure;BME280_temperature;BME280_humidity;BME280_pressure;Samples;Min_cycle;Max_cycle;Signal;HPM_P1;HPM_P2
2022/01/11 00:01:21;;;;;;;16.85;7.20;;;;;;;-0.04;100.00;100315.55;4215924;83;44460;-77
2022/01/11 00:07:23;;;;;;;17.40;7.67;;;;;;;0.19;100.00;100315.37;4219866;83;43930;-76
2022/01/11 00:13:24;;;;;;;16.27;8.03;;;;;;;0.35;100.00;100323.30;4286541;81;43936;-78
2022/01/11 00:19:28;;;;;;;15.85;7.92;;;;;;;0.16;100.00;100328.87;4240140;82;43957;-78
2022/01/11 00:25:36;;;;;;;14.03;7.10;;;;;;;0.24;100.00;100330.86;4290565;81;28517;-77
2022/01/11 00:31:38;;;;;;;14.63;7.28;;;;;;;0.27;100.00;100331.44;4201978;83;50711;-77
2022/01/11 00:37:39;;;;;;;15.70;7.92;;;;;;;0.26;100.00;100336.84;4295489;81;43984;-77
2022/01/11 00:43:42;;;;;;;15.58;7.65;;;;;;;0.36;100.00;100343.50;4285538;81;43906;-77
2022/01/11 00:49:43;;;;;;;15.78;7.97;;;;;;;0.11;100.00;100345.61;4275594;81;43965;-79
2022/01/11 00:55:47;;;;;;;16.70;7.60;;;;;;;0.59;100.00;100342.02;4275071;81;43925;-77
2022/01/11 01:01:48;;;;;;;16.20;8.00;;;;;;;0.33;100.00;100344.63;4288233;81;43948;-77
2022/01/11 01:07:51;;;;;;;15.08;7.40;;;;;;;0.23;100.00;100349.03;4286630;81;43956;-75
2022/01/11 01:13:53;;;;;;;15.68;7.85;;;;;;;0.06;100.00;100352.61;4275812;81;43960;-75
2022/01/11 01:19:54;;;;;;;17.60;8.23;;;;;;;0.20;100.00;100342.18;4280655;81;43976;-75
2022/01/11 01:25:57;;;;;;;15.72;7.95;;;;;;;0.13;100.00;100351.60;4249163;82;43944;-82
2022/01/11 01:32:00;;;;;;;15.70;7.40;;;;;;;0.45;100.00;100350.64;4281787;81;43911;-81
2022/01/11 01:38:01;;;;;;;18.07;7.95;;;;;;;0.70;100.00;100355.14;4287619;83;43901;-80
2022/01/11 01:44:03;;;;;;;16.40;7.58;;;;;;;0.52;100.00;100358.41;4284331;83;43885;-80
2022/01/11 01:50:08;;;;;;;15.00;6.78;;;;;;;0.37;100.00;100363.72;4245977;84;43890;-81
2022/01/11 01:56:09;;;;;;;19.25;9.28;;;;;;;0.62;100.00;100366.37;4245702;84;43930;-81
2022/01/11 02:02:13;;;;;;;19.40;9.63;;;;;;;0.53;100.00;100369.34;4208567;84;43950;-80
2022/01/11 02:08:14;;;;;;;15.20;6.95;;;;;;;0.43;100.00;100374.26;4192124;84;43927;-82
2022/01/11 02:14:16;;;;;;;14.78;7.67;;;;;;;0.37;100.00;100375.13;4175665;85;43997;-82
2022/01/11 02:20:18;;;;;;;14.07;7.45;;;;;;;0.04;100.00;100373.53;4185279;83;43982;-80
2022/01/11 02:26:20;;;;;;;13.43;7.20;;;;;;;0.57;100.00;100379.19;4180572;83;43955;-80
2022/01/11 02:32:22;;;;;;;14.28;7.42;;;;;;;0.51;100.00;100379.70;4243369;83;44373;-79
2022/01/11 02:38:24;;;;;;;13.22;6.85;;;;;;;0.67;100.00;100388.48;4210898;84;43930;-80
2022/01/11 02:44:26;;;;;;;18.65;7.62;;;;;;;0.46;100.00;100389.87;4228749;83;43918;-81
2022/01/11 02:50:28;;;;;;;15.23;7.20;;;;;;;0.64;100.00;100392.25;4238552;82;43925;-80
2022/01/11 02:56:30;;;;;;;16.35;7.17;;;;;;;-0.09;100.00;100394.41;4212346;82;43988;-80
2022/01/11 03:02:32;;;;;;;15.72;7.47;;;;;;;0.12;100.00;100394.42;4176104;83;43903;-81
2022/01/11 03:08:42;;;;;;;15.55;6.58;;;;;;;0.15;100.00;100400.41;4190555;82;43953;-80
2022/01/11 03:14:44;;;;;;;15.53;6.65;;;;;;;-0.02;100.00;100408.80;4270551;82;43905;-81
2022/01/11 03:20:49;;;;;;;14.18;7.55;;;;;;;0.24;100.00;100409.72;4274574;82;43924;-82
2022/01/11 03:26:51;;;;;;;13.38;6.65;;;;;;;-0.21;100.00;100433.30;4255749;82;28459;-80
2022/01/11 03:32:53;;;;;;;14.58;7.05;;;;;;;-0.21;100.00;100433.30;4277440;82;43899;-80
2022/01/11 03:38:57;;;;;;;16.00;7.30;;;;;;;0.14;100.00;100439.23;4295393;82;43901;-80
2022/01/11 03:45:00;;;;;;;15.98;7.05;;;;;;;-0.13;100.00;100437.94;4268080;82;43982;-80
2022/01/11 03:51:02;;;;;;;13.68;6.90;;;;;;;-0.21;100.00;100449.63;4272887;81;43902;-80
2022/01/11 03:57:08;;;;;;;12.40;6.30;;;;;;;-0.30;100.00;100451.23;4266289;82;43257;-81
2022/01/11 04:03:12;;;;;;;13.85;6.58;;;;;;;-0.27;100.00;100462.86;4282321;82;43901;-80
2022/01/11 04:09:15;;;;;;;14.33;6.50;;;;;;;-0.48;100.00;100469.39;4276224;82;44147;-80
2022/01/11 04:15:17;;;;;;;12.95;6.58;;;;;;;-0.48;99.96;100468.92;4298360;82;43222;-80
2022/01/11 04:21:19;;;;;;;15.48;6.60;;;;;;;-0.73;100.00;100481.94;4288619;82;43928;-80
2022/01/11 04:27:22;;;;;;;12.70;6.50;;;;;;;-0.57;99.96;100470.98;4272666;83;43573;-79
2022/01/11 04:33:26;;;;;;;11.88;6.83;;;;;;;-0.52;100.00;100480.72;4200012;83;43241;-79
2022/01/11 04:39:27;;;;;;;14.25;6.65;;;;;;;-0.55;100.00;100476.98;4249661;82;43900;-83
2022/01/11 04:45:28;;;;;;;14.28;7.30;;;;;;;-0.82;100.00;100481.34;4217656;83;43891;-81
2022/01/11 04:51:33;;;;;;;14.15;6.47;;;;;;;-0.91;100.00;100486.38;4305731;82;43917;-80
2022/01/11 04:57:35;;;;;;;14.45;6.28;;;;;;;-0.68;100.00;100497.42;4282993;82;43894;-80
2022/01/11 05:03:37;;;;;;;10.78;5.47;;;;;;;-0.92;100.00;100513.75;4291493;81;43268;-79
2022/01/11 05:09:39;;;;;;;10.35;5.20;;;;;;;-1.16;100.00;100522.63;4298654;81;43290;-79
2022/01/11 05:15:41;;;;;;;13.93;6.20;;;;;;;-1.28;100.00;100512.52;4262951;82;44050;-81
2022/01/11 05:21:43;;;;;;;13.50;6.05;;;;;;;-1.07;100.00;100516.28;4236500;83;43925;-83
2022/01/11 05:27:45;;;;;;;12.35;6.30;;;;;;;-1.21;100.00;100516.02;4274463;82;43259;-80
2022/01/11 05:33:48;;;;;;;13.43;7.33;;;;;;;-1.05;100.00;100532.83;4252905;82;43937;-80
2022/01/11 05:39:53;;;;;;;13.00;6.60;;;;;;;-1.25;100.00;100541.80;4243422;83;43983;-80
2022/01/11 05:45:53;;;;;;;19.57;7.70;;;;;;;-0.90;100.00;100555.89;4232479;84;43898;-78
2022/01/11 05:51:54;;;;;;;14.20;7.17;;;;;;;-0.88;100.00;100555.28;4180096;84;43897;-77
2022/01/11 05:57:55;;;;;;;15.90;7.45;;;;;;;-0.78;100.00;100555.40;4266645;82;43931;-77
2022/01/11 06:03:57;;;;;;;14.60;6.72;;;;;;;-0.92;100.00;100566.56;4282687;82;43929;-75
2022/01/11 06:09:59;;;;;;;14.90;6.45;;;;;;;-1.05;100.00;100571.11;4267245;82;43929;-79
2022/01/11 06:16:01;;;;;;;15.53;6.67;;;;;;;-0.69;100.00;100575.81;4207760;83;43966;-76
2022/01/11 06:22:02;;;;;;;14.90;6.72;;;;;;;-0.41;100.00;100584.72;4268994;81;43919;-77
2022/01/11 06:28:04;;;;;;;14.33;6.35;;;;;;;-0.64;100.00;100601.41;4250914;81;43926;-76
2022/01/11 06:34:06;;;;;;;13.53;6.72;;;;;;;-0.60;100.00;100609.94;4263084;83;43994;-79
2022/01/11 06:40:09;;;;;;;11.95;6.20;;;;;;;-0.25;100.00;100617.38;4298541;82;43262;-79
2022/01/11 06:46:11;;;;;;;13.28;6.60;;;;;;;-0.42;100.00;100627.47;4303798;82;43931;-77
2022/01/11 06:52:13;;;;;;;14.75;6.70;;;;;;;-0.46;100.00;100628.69;4296262;80;43951;-78
2022/01/11 06:58:17;;;;;;;14.10;7.05;;;;;;;-0.69;100.00;100637.89;4278795;82;43936;-78
2022/01/11 07:04:18;;;;;;;13.43;6.35;;;;;;;-0.58;100.00;100645.00;4279031;83;43932;-78
2022/01/11 07:10:21;;;;;;;13.68;7.05;;;;;;;-0.36;100.00;100655.22;4268032;82;43922;-76
2022/01/11 07:16:23;;;;;;;14.70;7.33;;;;;;;-0.09;100.00;100658.81;4281306;83;43929;-78
2022/01/11 07:22:25;;;;;;;14.85;7.67;;;;;;;-0.32;100.00;100672.05;4278351;82;44344;-78
2022/01/11 07:28:30;;;;;;;15.68;7.58;;;;;;;-0.17;100.00;100682.36;4302963;82;43923;-77
2022/01/11 07:34:31;;;;;;;16.07;7.92;;;;;;;-0.02;100.00;100684.28;4300557;82;43901;-76
2022/01/11 07:40:33;;;;;;;14.83;7.33;;;;;;;0.11;100.00;100682.83;4296283;82;43964;-78
2022/01/11 07:46:39;;;;;;;15.23;7.17;;;;;;;0.18;100.00;100692.44;4261419;83;43957;-77
2022/01/11 07:52:42;;;;;;;18.55;7.67;;;;;;;0.17;100.00;100696.05;4276720;83;43928;-77
2022/01/11 07:58:44;;;;;;;13.20;6.58;;;;;;;0.11;100.00;100688.98;4333635;82;43982;-76
2022/01/11 08:04:47;;;;;;;14.68;7.15;;;;;;;0.58;100.00;100697.67;4307358;82;43929;-77
2022/01/11 08:10:49;;;;;;;15.00;7.58;;;;;;;0.60;100.00;100701.02;4305788;81;43963;-77
2022/01/11 08:16:51;;;;;;;18.48;7.62;;;;;;;0.80;100.00;100712.62;4282634;82;43901;-78
2022/01/11 08:22:54;;;;;;;18.80;7.15;;;;;;;0.67;100.00;100706.16;4260327;83;43949;-79
2022/01/11 08:28:57;;;;;;;15.35;7.28;;;;;;;0.96;100.00;100701.13;4260571;82;43968;-76
2022/01/11 08:34:58;;;;;;;15.53;7.50;;;;;;;0.85;100.00;100711.77;4202925;84;43968;-80
2022/01/11 08:41:00;;;;;;;15.83;7.05;;;;;;;1.33;99.61;100708.28;4244000;82;43928;-78
2022/01/11 08:47:02;;;;;;;18.02;7.78;;;;;;;1.47;92.80;100717.72;4262851;81;28474;-77
2022/01/11 08:53:08;;;;;;;18.07;7.60;;;;;;;1.61;92.62;100721.85;4276404;82;43948;-78
2022/01/11 08:59:11;;;;;;;16.42;7.87;;;;;;;1.47;92.09;100722.55;4160368;85;43932;-78
2022/01/11 09:05:14;;;;;;;16.10;8.08;;;;;;;1.71;91.20;100725.87;4208990;84;43925;-77
2022/01/11 09:11:16;;;;;;;15.43;7.17;;;;;;;1.74;91.98;100725.63;4245250;83;43929;-78
2022/01/11 09:17:18;;;;;;;15.25;7.62;;;;;;;1.60;90.45;100724.15;4334806;81;43898;-77
2022/01/11 09:23:19;;;;;;;12.53;6.22;;;;;;;1.72;88.40;100729.72;4275870;81;43952;-77
2022/01/11 09:29:22;;;;;;;10.98;5.72;;;;;;;1.92;87.40;100736.45;4214144;83;43704;-78
2022/01/11 09:35:24;;;;;;;13.18;6.50;;;;;;;1.62;86.64;100734.13;4305754;82;28485;-78
2022/01/11 09:41:27;;;;;;;14.07;6.97;;;;;;;1.80;86.19;100737.02;4273139;82;43927;-78
2022/01/11 09:47:29;;;;;;;14.18;6.25;;;;;;;2.01;86.16;100729.50;4295554;82;43913;-77
2022/01/11 09:53:32;;;;;;;13.62;7.00;;;;;;;2.21;83.63;100725.13;4290727;82;43924;-78
2022/01/11 09:59:36;;;;;;;13.13;7.40;;;;;;;1.97;87.76;100715.66;4340602;82;28546;-79
2022/01/11 10:05:56;;;;;;;10.80;5.67;;;;;;;1.90;87.19;100724.64;4283798;82;28505;-77
2022/01/11 10:12:01;;;;;;;13.98;6.00;;;;;;;1.56;84.11;100723.56;4278484;82;28509;-81
2022/01/11 10:18:03;;;;;;;;;;;;;;;1.44;88.98;100728.59;4265774;83;28483;-78
2022/01/11 10:24:25;;;;;;;11.57;5.80;;;;;;;0.95;91.96;100737.00;4271282;83;20225;-78
2022/01/11 10:30:29;;;;;;;11.25;5.28;;;;;;;1.16;88.48;100739.70;4275131;83;43235;-80
2022/01/11 10:36:46;;;;;;;12.45;6.12;;;;;;;1.21;88.38;100732.69;4272505;83;43242;-76
2022/01/11 10:42:57;;;;;;;10.93;5.62;;;;;;;1.08;88.97;100737.66;4269623;82;43200;-78
2022/01/11 10:48:59;;;;;;;12.60;5.75;;;;;;;1.29;86.98;100739.99;4230291;84;43235;-79
2022/01/11 10:55:05;;;;;;;9.53;5.00;;;;;;;1.58;86.05;100743.33;4262854;83;42737;-78
2022/01/11 11:01:10;;;;;;;11.48;5.37;;;;;;;1.30;84.58;100741.20;4268295;83;28518;-78
2022/01/11 11:07:15;;;;;;;11.03;5.97;;;;;;;1.32;85.03;100740.58;4303941;82;28476;-77
2022/01/11 11:13:39;;;;;;;14.55;6.33;;;;;;;1.70;82.93;100731.67;4276096;82;43948;-78
2022/01/11 11:20:08;;;;;;;13.62;6.37;;;;;;;2.09;78.41;100728.35;4256812;83;43930;-78
2022/01/11 11:26:10;;;;;;;13.48;5.70;;;;;;;2.17;79.80;100729.86;4254600;83;28565;-81
2022/01/11 11:32:12;;;;;;;14.78;7.85;;;;;;;2.29;79.16;100718.66;4264256;83;28475;-79
2022/01/11 11:38:14;;;;;;;19.90;8.45;;;;;;;2.17;79.02;100729.00;4231170;83;28521;-78
2022/01/11 11:44:24;;;;;;;22.95;10.80;;;;;;;2.27;81.75;100718.44;4234467;83;28540;-77
2022/01/11 11:50:25;;;;;;;18.70;9.25;;;;;;;2.26;84.62;100726.05;4274620;83;28475;-78
2022/01/11 11:56:26;;;;;;;18.73;8.75;;;;;;;2.56;82.45;100722.98;4238444;83;28522;-79
2022/01/11 12:02:40;;;;;;;20.90;9.90;;;;;;;2.21;82.47;100725.13;4262487;83;28495;-78
2022/01/11 12:08:43;;;;;;;21.23;9.93;;;;;;;1.92;83.77;100738.60;4279287;82;28518;-79
2022/01/11 12:14:45;;;;;;;21.12;10.43;;;;;;;1.93;84.96;100731.03;4268773;83;28520;-77
2022/01/11 12:20:53;;;;;;;22.15;10.50;;;;;;;1.97;83.67;100734.73;4279655;82;28553;-79
2022/01/11 12:26:57;;;;;;;21.30;10.38;;;;;;;1.55;88.37;100732.49;4296608;82;28534;-80
2022/01/11 12:33:18;;;;;;;19.50;10.05;;;;;;;0.88;97.20;100734.48;4288265;82;28499;-78
2022/01/11 12:39:22;;;;;;;18.48;9.68;;;;;;;1.28;92.59;100735.67;4238982;83;43952;-77
2022/01/11 12:46:02;;;;;;;20.35;9.53;;;;;;;1.66;86.30;100746.14;4268128;83;28517;-76
2022/01/11 12:52:09;;;;;;;22.82;10.35;;;;;;;1.80;85.50;100745.83;4267733;83;28491;-77
2022/01/11 12:58:11;;;;;;;23.47;11.10;;;;;;;2.02;84.49;100745.77;4269276;83;43684;-77
2022/01/11 13:04:13;;;;;;;23.92;11.22;;;;;;;1.99;82.26;100758.84;4268722;83;28513;-77
2022/01/11 13:10:27;;;;;;;22.60;11.00;;;;;;;2.32;81.08;100751.56;4264546;83;28494;-78
2022/01/11 13:16:30;;;;;;;25.50;10.90;;;;;;;2.35;84.95;100747.80;4230658;83;28507;-79
2022/01/11 13:22:35;;;;;;;21.97;11.28;;;;;;;2.17;85.16;100752.41;4277837;83;44469;-79
2022/01/11 13:28:48;;;;;;;26.27;10.73;;;;;;;2.11;83.75;100761.40;4297871;82;28521;-77
2022/01/11 13:34:50;;;;;;;23.15;11.48;;;;;;;1.96;83.47;100760.41;4316689;82;28536;-78
2022/01/11 13:40:51;;;;;;;22.90;10.90;;;;;;;1.52;89.55;100756.12;4337801;81;28484;-76
2022/01/11 13:46:59;;;;;;;24.02;10.82;;;;;;;1.86;87.11;100759.52;4260421;83;28487;-77
2022/01/11 13:53:01;;;;;;;21.77;10.78;;;;;;;1.45;87.77;100760.75;4341383;81;44468;-77
2022/01/11 13:59:03;;;;;;;22.55;10.82;;;;;;;1.54;87.50;100767.93;4332322;81;44479;-82
2022/01/11 14:05:11;;;;;;;24.55;12.10;;;;;;;1.78;86.95;100761.03;4368038;81;28484;-77
2022/01/11 14:11:14;;;;;;;23.70;11.15;;;;;;;1.49;90.18;100763.48;4327722;81;28522;-77
2022/01/11 14:17:20;;;;;;;22.62;11.50;;;;;;;1.15;94.62;100768.48;4197019;84;44518;-78
2022/01/11 14:23:21;;;;;;;27.90;12.37;;;;;;;1.14;95.33;100777.88;4231354;81;28503;-77
2022/01/11 14:29:23;;;;;;;25.90;12.60;;;;;;;0.86;98.92;100770.86;4226120;83;42881;-79
2022/01/11 14:35:27;;;;;;;24.77;12.95;;;;;;;0.89;100.00;100775.42;4228784;84;43834;-79
2022/01/11 14:41:42;;;;;;;22.13;11.97;;;;;;;0.71;100.00;100779.56;4229382;84;28484;-77
2022/01/11 14:47:49;;;;;;;24.87;11.67;;;;;;;0.72;100.00;100783.89;4184425;84;28548;-78
2022/01/11 14:53:56;;;;;;;25.85;11.88;;;;;;;0.73;100.00;100783.77;4204279;84;43355;-77
2022/01/11 14:59:57;;;;;;;24.72;11.48;;;;;;;0.96;100.00;100781.06;4184335;84;28568;-77
2022/01/11 15:06:16;;;;;;;27.70;12.33;;;;;;;0.59;100.00;100770.31;4151478;84;43412;-77
2022/01/11 15:12:25;;;;;;;26.93;12.88;;;;;;;0.62;100.00;100770.06;4201154;83;43440;-77
2022/01/11 15:18:26;;;;;;;28.23;12.10;;;;;;;0.46;100.00;100766.98;4257269;83;43421;-78
2022/01/11 15:24:30;;;;;;;31.23;12.37;;;;;;;0.44;100.00;100775.53;4254009;83;43413;-81
2022/01/11 15:30:32;;;;;;;24.77;12.05;;;;;;;0.02;100.00;100779.63;4277861;83;43767;-78
2022/01/11 15:36:35;;;;;;;24.87;11.48;;;;;;;0.15;100.00;100776.02;4325573;82;43665;-81
2022/01/11 15:42:36;;;;;;;24.07;11.78;;;;;;;-0.07;100.00;100779.84;4283710;83;43668;-78
2022/01/11 15:48:39;;;;;;;25.25;12.00;;;;;;;-0.17;100.00;100781.51;4241286;84;43756;-81
2022/01/11 15:54:40;;;;;;;25.75;12.13;;;;;;;-0.21;100.00;100784.03;4240362;83;43318;-80
2022/01/11 16:00:42;;;;;;;23.83;12.00;;;;;;;-0.09;100.00;100792.84;4243626;84;43239;-77
2022/01/11 16:06:43;;;;;;;26.25;12.47;;;;;;;-0.31;100.00;100790.02;4240931;84;42845;-79
2022/01/11 16:12:46;;;;;;;29.37;13.13;;;;;;;-0.78;100.00;100795.75;4246811;83;43400;-80
2022/01/11 16:18:48;;;;;;;31.27;13.18;;;;;;;-0.52;100.00;100797.80;4329974;81;44093;-77
2022/01/11 16:24:52;;;;;;;27.30;12.82;;;;;;;-0.47;100.00;100800.06;4312055;81;43322;-79
2022/01/11 16:30:54;;;;;;;27.20;12.63;;;;;;;-0.44;100.00;100803.32;4295379;81;47297;-76
2022/01/11 16:36:55;;;;;;;27.77;13.13;;;;;;;-0.54;100.00;100812.07;4288085;81;43400;-77
2022/01/11 16:42:57;;;;;;;29.65;13.98;;;;;;;-0.55;100.00;100817.82;4300541;83;43372;-77
2022/01/11 16:48:58;;;;;;;31.55;13.80;;;;;;;-0.66;100.00;100820.42;4300723;83;44070;-76
2022/01/11 16:55:00;;;;;;;29.23;13.55;;;;;;;-0.68;100.00;100832.91;4266183;82;43483;-75
2022/01/11 17:01:02;;;;;;;32.98;14.65;;;;;;;-0.65;100.00;100832.21;4299688;81;44133;-75
2022/01/11 17:07:04;;;;;;;37.35;17.52;;;;;;;-0.94;100.00;100833.01;4311494;81;44841;-76
2022/01/11 17:13:05;;;;;;;45.05;18.57;;;;;;;-1.14;100.00;100841.92;4268975;82;43747;-80
2022/01/11 17:19:07;;;;;;;49.45;20.75;;;;;;;-1.49;100.00;100861.08;4267200;82;44075;-81
2022/01/11 17:25:11;;;;;;;52.58;23.25;;;;;;;-1.39;100.00;100856.84;4136516;84;44042;-78
2022/01/11 17:31:15;;;;;;;67.05;25.82;;;;;;;-1.17;100.00;100851.36;4263411;82;42923;-80
2022/01/11 17:37:20;;;;;;;59.33;25.35;;;;;;;-1.46;100.00;100864.35;4191240;83;43205;-78
2022/01/11 17:43:21;;;;;;;62.20;25.70;;;;;;;-1.20;100.00;100864.30;4260688;82;28531;-79
2022/01/11 17:49:23;;;;;;;64.53;26.48;;;;;;;-0.83;100.00;100870.53;4262060;82;43305;-82
2022/01/11 17:55:26;;;;;;;67.78;27.37;;;;;;;-0.92;100.00;100870.23;4142202;84;44109;-81
2022/01/11 18:01:28;;;;;;;67.75;28.27;;;;;;;-1.05;100.00;100873.41;4155147;84;44106;-79
2022/01/11 18:07:31;;;;;;;62.15;26.85;;;;;;;-1.02;100.00;100871.86;4262792;82;43460;-78
2022/01/11 18:13:34;;;;;;;66.67;27.25;;;;;;;-0.64;100.00;100873.52;4248012;82;43433;-80
2022/01/11 18:19:35;;;;;;;74.25;31.17;;;;;;;-0.68;100.00;100894.98;4217502;83;44103;-79
2022/01/11 18:25:37;;;;;;;73.33;31.40;;;;;;;-1.52;100.00;100903.03;4205363;83;44095;-81
2022/01/11 18:31:40;;;;;;;72.35;27.45;;;;;;;-1.35;100.00;100911.58;4236099;83;44180;-79
2022/01/11 18:37:41;;;;;;;64.35;26.68;;;;;;;-1.55;100.00;100919.94;4236334;83;43342;-80
2022/01/11 18:43:43;;;;;;;60.38;23.57;;;;;;;-1.64;100.00;100932.89;4236782;83;44498;-79
2022/01/11 18:49:44;;;;;;;66.15;24.35;;;;;;;-1.82;100.00;100939.32;4220702;83;43869;-79
2022/01/11 18:55:51;;;;;;;59.15;23.55;;;;;;;-1.45;100.00;100933.32;4213516;83;44131;-78
2022/01/11 19:01:55;;;;;;;63.52;23.87;;;;;;;-1.72;100.00;100939.56;4230357;83;28549;-81
2022/01/11 19:07:58;;;;;;;58.48;23.12;;;;;;;-1.60;100.00;100935.71;4228318;83;44095;-80
2022/01/11 19:14:01;;;;;;;56.98;21.23;;;;;;;-1.49;100.00;100941.55;4236348;83;28503;-80
2022/01/11 19:20:06;;;;;;;51.83;20.97;;;;;;;-1.74;100.00;100939.28;4245272;82;43618;-78
2022/01/11 19:26:10;;;;;;;53.10;19.77;;;;;;;-2.02;100.00;100947.72;4309864;81;28531;-78
2022/01/11 19:32:13;;;;;;;54.90;21.00;;;;;;;-2.09;100.00;100948.61;4263690;83;44144;-78
2022/01/11 19:38:15;;;;;;;51.98;21.25;;;;;;;-2.06;100.00;100954.98;4233166;82;43827;-77
2022/01/11 19:44:16;;;;;;;52.35;20.77;;;;;;;-1.74;100.00;100959.89;4258293;82;43925;-78
2022/01/11 19:50:17;;;;;;;52.20;20.23;;;;;;;-1.47;100.00;100950.20;4234442;84;43922;-77
2022/01/11 19:56:19;;;;;;;54.98;20.90;;;;;;;-2.06;100.00;100956.79;4260555;82;44106;-78
2022/01/11 20:02:20;;;;;;;56.15;20.57;;;;;;;-2.00;100.00;100953.73;4271192;83;44107;-80
2022/01/11 20:08:22;;;;;;;55.20;21.75;;;;;;;-1.83;100.00;100956.55;4224387;82;44178;-82
2022/01/11 20:14:23;;;;;;;50.48;19.75;;;;;;;-2.04;100.00;100944.34;4211132;82;43749;-84
2022/01/11 20:20:33;;;;;;;51.53;21.00;;;;;;;-1.84;100.00;100938.58;4245618;83;43661;-83
2022/01/11 20:32:49;;;;;;;46.80;18.32;;;;;;;-1.73;100.00;100939.16;4164521;84;43730;-83
2022/01/11 20:38:51;;;;;;;46.02;17.45;;;;;;;-1.66;100.00;100951.94;4210603;83;43821;-82
2022/01/11 20:44:55;;;;;;;51.25;18.10;;;;;;;-2.00;100.00;100942.72;4212362;84;42854;-85
2022/01/11 20:51:06;;;;;;;48.70;17.62;;;;;;;-1.83;100.00;100940.73;4259138;83;43724;-83
2022/01/11 20:57:04;;;;;;;47.58;17.75;;;;;;;-2.18;100.00;100933.39;4267615;82;43732;-83
2022/01/11 21:03:06;;;;;;;47.03;18.07;;;;;;;-2.12;100.00;100940.41;4286715;82;28514;-83
2022/01/11 21:09:07;;;;;;;49.38;18.00;;;;;;;-1.62;100.00;100945.03;4254236;82;43759;-82
2022/01/11 21:15:11;;;;;;;42.85;16.52;;;;;;;-1.80;100.00;100945.81;4220464;83;44461;-82
2022/01/11 21:21:12;;;;;;;43.40;16.93;;;;;;;-1.72;100.00;100935.60;4245073;83;42897;-82
2022/01/11 21:27:14;;;;;;;47.60;18.30;;;;;;;-1.46;100.00;100934.28;4293251;81;43759;-81
2022/01/11 21:33:19;;;;;;;45.40;18.85;;;;;;;-1.49;100.00;100927.91;4285522;82;43771;-82
2022/01/11 21:39:20;;;;;;;43.97;18.10;;;;;;;-1.31;100.00;100935.47;4231629;83;28488;-79
2022/01/11 21:45:22;;;;;;;45.58;18.23;;;;;;;-1.64;100.00;100940.81;4259456;82;43775;-83
2022/01/11 21:51:25;;;;;;;49.25;18.10;;;;;;;-1.53;100.00;100935.64;4235512;83;43729;-83
2022/01/11 21:57:26;;;;;;;42.15;17.32;;;;;;;-1.60;100.00;100937.03;4255585;83;43657;-81
2022/01/11 22:03:27;;;;;;;40.08;16.25;;;;;;;-1.52;100.00;100935.18;4249158;82;44465;-82
2022/01/11 22:09:29;;;;;;;36.95;14.83;;;;;;;-1.36;100.00;100926.55;4225711;83;44417;-83
2022/01/11 22:21:32;;;;;;;34.00;14.58;;;;;;;-1.79;100.00;100937.42;4321213;81;44109;-82
2022/01/11 22:27:34;;;;;;;36.58;14.75;;;;;;;-1.66;100.00;100936.98;4218933;83;44493;-82
2022/01/11 22:33:36;;;;;;;35.50;14.38;;;;;;;-1.52;100.00;100942.60;4241135;82;44284;-81
2022/01/11 22:39:41;;;;;;;34.20;14.28;;;;;;;-1.38;100.00;100943.47;4272924;82;44083;-80
2022/01/11 22:45:46;;;;;;;34.45;13.78;;;;;;;-2.18;100.00;100954.02;4305261;81;44097;-82
2022/01/11 22:51:45;;;;;;;30.62;12.73;;;;;;;-1.94;100.00;100951.16;4326590;81;43385;-82
2022/01/11 22:57:47;;;;;;;32.10;12.78;;;;;;;-1.88;100.00;100942.84;4308038;81;44157;-82
2022/01/11 23:03:49;;;;;;;28.73;12.82;;;;;;;-1.86;100.00;100948.86;4272352;82;43377;-82
2022/01/11 23:09:51;;;;;;;31.00;12.90;;;;;;;-1.74;100.00;100950.66;4308170;81;43775;-80
2022/01/11 23:15:53;;;;;;;34.00;13.13;;;;;;;-1.60;100.00;100944.45;4297357;81;44154;-81
2022/01/11 23:21:54;;;;;;;30.55;12.05;;;;;;;-1.80;100.00;100935.73;4283278;81;43436;-80
2022/01/11 23:27:56;;;;;;;30.75;12.15;;;;;;;-1.99;100.00;100943.09;4293435;81;43380;-80
2022/01/11 23:34:00;;;;;;;32.15;12.37;;;;;;;-1.49;100.00;100941.09;4296823;81;44117;-82
2022/01/11 23:46:15;;;;;;;;;;;;;;;-1.68;100.00;100946.77;4203559;82;28515;-81
2022/01/11 23:52:17;;;;;;;30.68;12.18;;;;;;;-1.77;100.00;100946.92;4235940;82;43393;-81
2022/01/11 23:58:19;;;;;;;28.87;11.03;;;;;;;-1.51;100.00;100938.19;4241024;82;43456;-82
